createdAt,value
2019-04-25T00:01:21.550Z,1.10
2019-04-25T00:03:49.734Z,1.10
2019-04-25T00:06:18.427Z,1.02
2019-04-25T00:08:46.346Z,1.10
2019-04-25T00:11:15.681Z,1.02
2019-04-25T00:13:44.123Z,0.95
2019-04-25T00:16:12.837Z,1.15
2019-04-25T00:18:42.853Z,1.00
2019-04-25T00:21:27.079Z,1.20
2019-04-25T00:23:59.002Z,1.10
2019-04-25T00:26:31.695Z,1.10
2019-04-25T00:29:01.975Z,1.20
2019-04-25T00:31:29.567Z,1.00
2019-04-25T00:33:57.471Z,1.82
2019-04-25T00:36:25.334Z,1.40
2019-04-25T00:38:53.359Z,1.42
2019-04-25T00:41:21.467Z,1.10
2019-04-25T00:43:49.976Z,1.00
2019-04-25T00:46:22.540Z,1.20
2019-04-25T00:48:51.774Z,1.20
2019-04-25T00:51:21.784Z,1.20
2019-04-25T00:53:51.755Z,1.25
2019-04-25T00:56:19.759Z,1.20
2019-04-25T00:59:06.692Z,1.20
2019-04-25T01:01:49.285Z,2.87
2019-04-25T01:04:18.741Z,1.22
2019-04-25T01:06:47.602Z,1.15
2019-04-25T01:09:18.924Z,1.10
2019-04-25T01:11:48.857Z,0.90
2019-04-25T01:14:16.748Z,1.10
2019-04-25T01:16:46.501Z,1.27
2019-04-25T01:19:14.554Z,1.10
2019-04-25T01:21:43.898Z,1.20
2019-04-25T01:24:16.793Z,1.57
2019-04-25T01:26:47.545Z,1.30
2019-04-25T01:29:16.288Z,1.30
2019-04-25T01:31:46.484Z,1.35
2019-04-25T01:34:18.662Z,1.27
2019-04-25T01:37:09.339Z,1.52
2019-04-25T01:39:54.945Z,1.70
2019-04-25T01:42:41.569Z,1.50
2019-04-25T01:45:11.440Z,1.50
2019-04-25T01:47:39.718Z,1.30
2019-04-25T01:50:07.960Z,1.35
2019-04-25T01:52:35.896Z,1.45
2019-04-25T01:55:05.506Z,1.77
2019-04-25T01:57:34.788Z,1.25
2019-04-25T02:00:03.916Z,1.50
2019-04-25T02:02:33.483Z,1.67
2019-04-25T02:05:06.478Z,1.85
2019-04-25T02:07:34.744Z,1.87
2019-04-25T02:10:04.449Z,1.60
2019-04-25T02:12:43.578Z,1.40
2019-04-25T02:15:13.766Z,1.50
2019-04-25T02:17:41.921Z,1.60
2019-04-25T02:20:10.678Z,1.30
2019-04-25T02:22:39.713Z,1.55
2019-04-25T02:25:07.573Z,1.60
2019-04-25T02:27:38.217Z,1.60
2019-04-25T02:30:06.909Z,1.45
2019-04-25T02:32:37.082Z,1.30
2019-04-25T02:35:09.451Z,1.60
2019-04-25T02:37:35.495Z,1.35
2019-04-25T02:40:06.673Z,1.70
2019-04-25T02:42:34.339Z,1.50
2019-04-25T02:45:17.909Z,1.30
2019-04-25T02:48:07.887Z,1.55
2019-04-25T02:50:59.710Z,1.67
2019-04-25T02:53:37.357Z,1.30
2019-04-25T02:56:25.684Z,1.27
2019-04-25T02:58:36.568Z,1.55
2019-04-25T03:01:16.551Z,1.37
2019-04-25T03:03:36.478Z,1.40
2019-04-25T03:06:07.610Z,1.40
2019-04-25T03:08:37.765Z,1.62
2019-04-25T03:11:07.528Z,1.52
2019-04-25T03:13:35.274Z,1.35
2019-04-25T03:16:07.698Z,1.32
2019-04-25T03:18:38.638Z,1.40
2019-04-25T03:21:20.481Z,1.35
2019-04-25T03:23:56.518Z,1.30
2019-04-25T03:26:37.728Z,1.30
2019-04-25T03:28:56.393Z,1.50
2019-04-25T03:31:27.107Z,1.40
2019-04-25T03:33:55.771Z,1.40
2019-04-25T03:36:24.514Z,1.52
2019-04-25T03:38:54.041Z,1.50
2019-04-25T03:41:24.646Z,1.80
2019-04-25T03:43:54.047Z,1.65
2019-04-25T03:46:23.543Z,1.85
2019-04-25T03:48:53.861Z,1.87
2019-04-25T03:51:21.950Z,1.92
2019-04-25T03:53:50.187Z,1.82
2019-04-25T03:56:18.082Z,1.77
2019-04-25T03:58:47.951Z,1.70
2019-04-25T04:01:17.311Z,1.82
2019-04-25T04:03:46.402Z,1.82
2019-04-25T04:06:15.561Z,2.25
2019-04-25T04:08:45.187Z,1.60
2019-04-25T04:11:14.553Z,3.00
2019-04-25T04:13:44.076Z,2.30
2019-04-25T04:16:14.344Z,2.08
2019-04-25T04:18:44.537Z,2.60
2019-04-25T04:21:23.078Z,2.50
2019-04-25T04:23:58.136Z,1.98
2019-04-25T04:26:26.136Z,2.00
2019-04-25T04:28:54.064Z,1.85
2019-04-25T04:31:23.458Z,1.87
2019-04-25T04:33:53.793Z,1.60
2019-04-25T04:36:23.802Z,1.72
2019-04-25T04:38:51.800Z,2.30
2019-04-25T04:41:23.947Z,2.00
2019-04-25T04:43:54.713Z,2.30
2019-04-25T04:46:24.141Z,1.90
2019-04-25T04:48:55.309Z,2.10
2019-04-25T04:51:24.671Z,1.60
2019-04-25T04:53:53.759Z,1.85
2019-04-25T04:56:23.921Z,1.55
2019-04-25T04:58:54.753Z,1.70
2019-04-25T05:01:24.722Z,1.70
2019-04-25T05:04:17.152Z,1.90
2019-04-25T05:06:53.708Z,1.65
2019-04-25T05:09:26.999Z,2.35
2019-04-25T05:11:54.858Z,2.08
2019-04-25T05:14:23.883Z,2.05
2019-04-25T05:16:53.259Z,1.85
2019-04-25T05:19:22.027Z,1.80
2019-04-25T05:21:50.287Z,2.20
2019-04-25T05:24:18.736Z,1.85
2019-04-25T05:26:46.533Z,1.90
2019-04-25T05:29:19.807Z,1.80
2019-04-25T05:31:49.461Z,1.82
2019-04-25T05:34:18.296Z,1.90
2019-04-25T05:36:46.324Z,2.20
2019-04-25T05:39:17.392Z,1.87
2019-04-25T05:42:02.063Z,3.95
2019-04-25T05:44:29.970Z,1.50
2019-04-25T05:46:57.802Z,1.60
2019-04-25T05:49:26.358Z,1.57
2019-04-25T05:51:54.348Z,1.80
2019-04-25T05:54:23.096Z,1.50
2019-04-25T05:56:51.781Z,1.30
2019-04-25T05:59:19.655Z,1.50
2019-04-25T06:01:47.466Z,1.42
2019-04-25T06:04:15.387Z,2.00
2019-04-25T06:06:44.619Z,1.60
2019-04-25T06:09:49.599Z,1.80
2019-04-25T06:12:33.544Z,1.90
2019-04-25T06:15:02.909Z,1.62
2019-04-25T06:17:39.205Z,1.47
2019-04-25T06:20:08.390Z,1.77
2019-04-25T06:23:07.345Z,1.55
2019-04-25T06:25:39.607Z,1.60
2019-04-25T06:28:06.793Z,1.92
2019-04-25T06:30:35.205Z,1.62
2019-04-25T06:33:03.357Z,1.35
2019-04-25T06:35:31.305Z,1.42
2019-04-25T06:37:59.180Z,1.62
2019-04-25T06:40:29.379Z,1.55
2019-04-25T06:42:56.687Z,1.40
2019-04-25T06:45:44.181Z,1.55
2019-04-25T06:48:31.185Z,1.80
2019-04-25T06:50:59.027Z,1.22
2019-04-25T06:53:26.991Z,1.30
2019-04-25T06:55:54.966Z,1.40
2019-04-25T06:58:25.653Z,1.20
2019-04-25T07:01:00.046Z,1.27
2019-04-25T07:03:22.778Z,1.20
2019-04-25T07:05:51.340Z,1.30
2019-04-25T07:08:19.166Z,1.52
2019-04-25T07:10:47.015Z,1.60
2019-04-25T07:13:15.077Z,1.82
2019-04-25T07:15:43.717Z,1.40
2019-04-25T07:18:13.825Z,1.13
2019-04-25T07:20:41.262Z,1.30
2019-04-25T07:23:09.215Z,1.30
2019-04-25T07:25:40.223Z,1.40
2019-04-25T07:28:30.800Z,1.40
2019-04-25T07:31:18.842Z,1.33
2019-04-25T07:33:54.441Z,1.40
2019-04-25T07:36:23.275Z,1.27
2019-04-25T07:39:04.898Z,1.52
2019-04-25T07:41:20.926Z,1.37
2019-04-25T07:43:48.758Z,1.25
2019-04-25T07:46:16.885Z,2.20
2019-04-25T07:48:44.708Z,1.22
2019-04-25T07:51:15.897Z,1.60
2019-04-25T07:53:43.634Z,1.52
2019-04-25T07:56:11.755Z,1.30
2019-04-25T07:58:50.545Z,1.30
2019-04-25T08:01:13.830Z,1.25
2019-04-25T08:03:43.720Z,1.37
2019-04-25T08:06:13.555Z,1.07
2019-04-25T08:08:41.131Z,1.32
2019-04-25T08:11:09.582Z,1.52
2019-04-25T08:13:59.517Z,1.35
2019-04-25T08:16:28.849Z,1.20
2019-04-25T08:18:57.871Z,1.22
2019-04-25T08:21:25.813Z,1.10
2019-04-25T08:23:54.769Z,1.22
2019-04-25T08:26:23.974Z,1.10
2019-04-25T08:28:55.683Z,1.10
2019-04-25T08:31:21.426Z,1.20
2019-04-25T08:33:49.289Z,1.30
2019-04-25T08:36:17.163Z,1.02
2019-04-25T08:38:45.017Z,1.47
2019-04-25T08:41:14.015Z,1.10
2019-04-25T08:43:43.238Z,1.27
2019-04-25T08:46:13.940Z,1.35
2019-04-25T08:49:09.241Z,1.52
2019-04-25T08:51:38.550Z,1.20
2019-04-25T08:54:28.556Z,1.40
2019-04-25T08:56:57.927Z,1.27
2019-04-25T09:00:00.159Z,1.02
2019-04-25T09:02:44.753Z,1.20
2019-04-25T09:05:21.816Z,1.40
2019-04-25T09:07:50.880Z,1.00
2019-04-25T09:10:18.843Z,1.70
2019-04-25T09:12:46.727Z,0.90
2019-04-25T09:15:15.144Z,0.90
2019-04-25T09:17:46.861Z,1.00
2019-04-25T09:20:13.947Z,1.17
2019-04-25T09:22:42.063Z,0.95
2019-04-25T09:25:10.972Z,1.30
2019-04-25T09:27:40.389Z,1.00
2019-04-25T09:30:08.640Z,1.02
2019-04-25T09:32:37.244Z,1.10
2019-04-25T09:35:06.518Z,0.93
2019-04-25T09:37:36.754Z,1.00
2019-04-25T09:40:15.265Z,1.10
2019-04-25T09:42:44.749Z,1.00
2019-04-25T09:45:31.460Z,1.15
2019-04-25T09:48:04.688Z,1.20
2019-04-25T09:50:46.650Z,1.10
2019-04-25T09:53:23.552Z,1.10
2019-04-25T09:55:56.682Z,1.22
2019-04-25T09:58:40.357Z,0.85
2019-04-25T10:01:10.934Z,1.25
2019-04-25T10:03:38.837Z,1.10
2019-04-25T10:06:06.947Z,0.80
2019-04-25T10:08:34.800Z,0.80
2019-04-25T10:11:04.076Z,0.95
2019-04-25T10:13:33.681Z,1.10
2019-04-25T10:16:03.068Z,1.10
2019-04-25T10:18:33.324Z,1.20
2019-04-25T10:21:01.418Z,1.10
2019-04-25T10:23:29.809Z,0.90
2019-04-25T10:25:57.703Z,1.17
2019-04-25T10:28:27.242Z,1.00
2019-04-25T10:30:55.646Z,1.30
2019-04-25T10:33:25.376Z,1.00
2019-04-25T10:35:58.872Z,1.10
2019-04-25T10:38:24.380Z,1.00
2019-04-25T10:40:53.654Z,1.10
2019-04-25T10:43:23.450Z,1.15
2019-04-25T10:45:51.259Z,1.22
2019-04-25T10:48:19.539Z,1.02
2019-04-25T10:50:48.442Z,1.10
2019-04-25T10:53:16.484Z,1.07
2019-04-25T10:55:45.517Z,1.00
2019-04-25T10:58:14.181Z,1.10
2019-04-25T11:00:46.141Z,0.90
2019-04-25T11:03:27.190Z,0.85
2019-04-25T11:05:55.953Z,0.90
2019-04-25T11:08:24.555Z,0.93
2019-04-25T11:10:53.743Z,0.90
2019-04-25T11:13:22.785Z,0.90
2019-04-25T11:15:50.667Z,0.80
2019-04-25T11:18:18.586Z,1.00
2019-04-25T11:20:46.402Z,0.97
2019-04-25T11:23:15.482Z,0.97
2019-04-25T11:25:45.000Z,0.90
2019-04-25T11:28:14.407Z,1.10
2019-04-25T11:30:45.230Z,1.00
2019-04-25T11:33:14.300Z,1.00
2019-04-25T11:35:47.475Z,1.10
2019-04-25T11:38:16.659Z,1.00
2019-04-25T11:40:51.513Z,1.10
2019-04-25T11:43:19.590Z,1.05
2019-04-25T11:45:47.554Z,1.13
2019-04-25T11:48:15.378Z,1.43
2019-04-25T11:50:48.160Z,1.50
2019-04-25T11:53:13.145Z,1.20
2019-04-25T11:55:41.031Z,1.13
2019-04-25T11:58:08.931Z,1.17
2019-04-25T12:00:36.797Z,1.30
2019-04-25T12:03:04.656Z,1.17
2019-04-25T12:05:34.197Z,1.07
2019-04-25T12:08:04.087Z,0.90
2019-04-25T12:10:34.618Z,0.90
2019-04-25T12:13:02.915Z,0.97
2019-04-25T12:15:31.170Z,1.30
2019-04-25T12:17:59.074Z,1.10
2019-04-25T12:20:26.934Z,1.00
2019-04-25T12:23:05.810Z,0.90
2019-04-25T12:25:24.366Z,1.20
2019-04-25T12:27:53.830Z,1.10
2019-04-25T12:30:34.772Z,1.10
2019-04-25T12:32:52.292Z,1.10
2019-04-25T12:35:21.023Z,1.30
2019-04-25T12:37:49.874Z,1.17
2019-04-25T12:40:17.938Z,1.10
2019-04-25T12:42:46.406Z,0.90
2019-04-25T12:45:24.203Z,1.70
2019-04-25T12:47:54.748Z,0.90
2019-04-25T12:50:23.082Z,1.00
2019-04-25T12:52:51.453Z,0.80
2019-04-25T12:55:19.810Z,1.20
2019-04-25T12:57:48.221Z,0.90
2019-04-25T13:00:21.381Z,1.00
2019-04-25T13:02:49.209Z,1.17
2019-04-25T13:05:17.350Z,1.00
2019-04-25T13:07:45.201Z,0.90
2019-04-25T13:10:15.274Z,1.10
2019-04-25T13:12:44.285Z,1.00
2019-04-25T13:15:13.082Z,0.80
2019-04-25T13:17:41.039Z,1.17
2019-04-25T13:20:09.051Z,1.10
2019-04-25T13:22:36.944Z,1.10
2019-04-25T13:25:05.636Z,0.83
2019-04-25T13:27:49.847Z,1.00
2019-04-25T13:30:35.567Z,1.80
2019-04-25T13:33:33.146Z,1.10
2019-04-25T13:36:08.309Z,0.80
2019-04-25T13:38:36.229Z,2.43
2019-04-25T13:41:04.133Z,0.93
2019-04-25T13:43:32.044Z,0.97
2019-04-25T13:45:59.867Z,1.20
2019-04-25T13:48:28.006Z,1.00
2019-04-25T13:50:56.032Z,0.90
2019-04-25T13:53:24.657Z,1.07
2019-04-25T13:55:53.513Z,1.07
2019-04-25T13:58:22.228Z,1.03
2019-04-25T14:00:50.280Z,1.10
2019-04-25T14:03:18.120Z,1.00
2019-04-25T14:05:45.988Z,0.90
2019-04-25T14:08:14.949Z,1.33
2019-04-25T14:10:44.342Z,1.20
2019-04-25T14:13:13.468Z,1.20
2019-04-25T14:15:46.382Z,0.83
2019-04-25T14:18:39.317Z,1.40
2019-04-25T14:21:14.537Z,1.00
2019-04-25T14:23:44.153Z,0.97
2019-04-25T14:26:12.406Z,1.10
2019-04-25T14:28:40.267Z,1.27
2019-04-25T14:31:09.634Z,0.80
2019-04-25T14:33:37.494Z,1.00
2019-04-25T14:36:05.336Z,1.00
2019-04-25T14:38:33.865Z,1.00
2019-04-25T14:41:02.150Z,1.20
2019-04-25T14:43:29.974Z,1.23
2019-04-25T14:45:57.919Z,1.20
2019-04-25T14:48:25.766Z,1.00
2019-04-25T14:50:53.592Z,1.33
2019-04-25T14:53:21.450Z,1.77
2019-04-25T14:56:15.309Z,1.23
2019-04-25T14:58:44.009Z,1.20
2019-04-25T15:01:13.719Z,1.50
2019-04-25T15:03:41.687Z,1.20
2019-04-25T15:06:09.598Z,1.20
2019-04-25T15:08:37.490Z,1.10
2019-04-25T15:11:05.782Z,1.10
2019-04-25T15:13:33.661Z,1.87
2019-04-25T15:16:01.550Z,1.00
2019-04-25T15:18:29.415Z,1.30
2019-04-25T15:20:57.304Z,1.33
2019-04-25T15:23:25.462Z,1.20
2019-04-25T15:25:53.375Z,1.20
2019-04-25T15:28:21.189Z,1.60
2019-04-25T15:30:49.160Z,0.90
2019-04-25T15:33:17.249Z,1.00
2019-04-25T15:35:53.849Z,1.30
2019-04-25T15:38:30.192Z,1.17
2019-04-25T15:41:04.358Z,1.00
2019-04-25T15:44:09.445Z,1.40
2019-04-25T15:46:39.269Z,1.03
2019-04-25T15:49:07.097Z,1.20
2019-04-25T15:51:35.551Z,1.30
2019-04-25T15:54:03.537Z,1.03
2019-04-25T15:56:35.488Z,1.40
2019-04-25T15:59:01.049Z,1.60
2019-04-25T16:01:28.886Z,1.30
2019-04-25T16:03:56.717Z,1.00
2019-04-25T16:06:25.535Z,2.50
2019-04-25T16:08:54.171Z,2.50
2019-04-25T16:11:22.029Z,2.70
2019-04-25T16:13:49.970Z,2.03
2019-04-25T16:16:17.794Z,1.37
2019-04-25T16:18:45.624Z,1.87
2019-04-25T16:21:14.102Z,1.23
2019-04-25T16:23:42.666Z,1.83
2019-04-25T16:26:10.862Z,1.10
2019-04-25T16:28:38.718Z,1.20
2019-04-25T16:31:08.323Z,1.70
2019-04-25T16:33:36.356Z,1.33
2019-04-25T16:36:04.370Z,1.20
2019-04-25T16:38:33.284Z,1.60
2019-04-25T16:41:01.394Z,1.30
2019-04-25T16:43:33.160Z,1.60
2019-04-25T16:46:02.281Z,1.30
2019-04-25T16:48:31.158Z,1.20
2019-04-25T16:50:59.365Z,1.23
2019-04-25T16:53:27.841Z,1.50
2019-04-25T16:55:55.999Z,1.53
2019-04-25T16:58:26.211Z,1.47
2019-04-25T17:00:59.098Z,1.33
2019-04-25T17:03:28.982Z,1.10
2019-04-25T17:05:59.573Z,1.87
2019-04-25T17:08:27.954Z,1.50
2019-04-25T17:10:55.824Z,1.53
2019-04-25T17:13:26.056Z,1.20
2019-04-25T17:16:11.482Z,2.30
2019-04-25T17:19:00.736Z,1.40
2019-04-25T17:21:28.638Z,1.30
2019-04-25T17:23:59.305Z,1.10
2019-04-25T17:26:28.670Z,1.10
2019-04-25T17:29:01.620Z,1.10
2019-04-25T17:31:46.172Z,1.30
2019-04-25T17:34:21.473Z,1.77
2019-04-25T17:37:02.920Z,1.10
2019-04-25T17:39:40.027Z,1.70
2019-04-25T17:42:09.470Z,1.50
2019-04-25T17:44:38.787Z,1.50
2019-04-25T17:47:07.652Z,1.53
2019-04-25T17:49:36.795Z,1.20
2019-04-25T17:52:06.972Z,1.80
2019-04-25T17:54:34.678Z,1.47
2019-04-25T17:57:04.050Z,1.30
2019-04-25T17:59:34.708Z,1.40
2019-04-25T18:02:06.054Z,1.47
2019-04-25T18:04:35.393Z,1.33
2019-04-25T18:07:08.496Z,1.47
2019-04-25T18:09:43.871Z,1.73
2019-04-25T18:12:12.107Z,1.40
2019-04-25T18:14:46.700Z,0.93
2019-04-25T18:17:19.909Z,1.33
2019-04-25T18:20:01.188Z,1.20
2019-04-25T18:22:57.873Z,1.30
2019-04-25T18:25:53.882Z,1.53
2019-04-25T18:28:27.822Z,1.40
2019-04-25T18:30:56.207Z,1.53
2019-04-25T18:33:32.458Z,1.50
2019-04-25T18:36:05.810Z,1.50
2019-04-25T18:38:54.094Z,1.60
2019-04-25T18:41:28.994Z,1.50
2019-04-25T18:43:59.341Z,2.03
2019-04-25T18:46:30.545Z,1.60
2019-04-25T18:48:59.073Z,1.67
2019-04-25T18:51:27.019Z,1.50
2019-04-25T18:54:11.742Z,1.67
2019-04-25T18:57:02.259Z,2.90
2019-04-25T19:00:01.603Z,1.53
2019-04-25T19:02:48.051Z,1.50
2019-04-25T19:05:27.932Z,2.00
2019-04-25T19:07:55.888Z,1.43
2019-04-25T19:10:24.034Z,1.87
2019-04-25T19:12:53.095Z,1.37
2019-04-25T19:15:21.135Z,1.60
2019-04-25T19:17:48.982Z,1.60
2019-04-25T19:20:20.971Z,2.30
2019-04-25T19:22:49.019Z,1.80
2019-04-25T19:25:17.523Z,2.10
2019-04-25T19:27:47.239Z,1.98
2019-04-25T19:30:16.962Z,2.37
2019-04-25T19:32:47.230Z,2.40
2019-04-25T19:35:15.428Z,2.20
2019-04-25T19:37:44.257Z,3.35
2019-04-25T19:40:48.123Z,2.02
2019-04-25T19:43:38.321Z,1.70
2019-04-25T19:46:07.457Z,1.80
2019-04-25T19:48:35.821Z,1.72
2019-04-25T19:51:03.689Z,2.02
2019-04-25T19:53:33.712Z,1.87
2019-04-25T19:56:01.704Z,1.98
2019-04-25T19:58:29.710Z,1.70
2019-04-25T20:00:59.279Z,1.50
2019-04-25T20:03:33.976Z,1.55
2019-04-25T20:06:10.958Z,1.75
2019-04-25T20:08:56.418Z,2.85
2019-04-25T20:11:34.566Z,1.50
2019-04-25T20:14:02.524Z,1.80
2019-04-25T20:16:32.936Z,1.85
2019-04-25T20:19:01.370Z,1.72
2019-04-25T20:21:29.231Z,1.75
2019-04-25T20:23:57.244Z,2.05
2019-04-25T20:26:25.203Z,1.70
2019-04-25T20:28:53.376Z,1.30
2019-04-25T20:31:21.310Z,1.82
2019-04-25T20:34:02.365Z,1.50
2019-04-25T20:36:19.327Z,1.30
2019-04-25T20:38:47.310Z,1.40
2019-04-25T20:41:22.690Z,1.60
2019-04-25T20:43:52.816Z,1.62
2019-04-25T20:46:21.115Z,1.50
2019-04-25T20:48:50.125Z,1.50
2019-04-25T20:51:18.284Z,1.42
2019-04-25T20:53:46.483Z,1.70
2019-04-25T20:56:15.893Z,1.47
2019-04-25T20:58:43.866Z,2.05
2019-04-25T21:01:11.778Z,1.57
2019-04-25T21:03:42.148Z,1.75
2019-04-25T21:06:18.534Z,1.65
2019-04-25T21:08:49.007Z,1.55
2019-04-25T21:11:17.331Z,1.65
2019-04-25T21:14:02.766Z,2.02
2019-04-25T21:17:07.998Z,1.95
2019-04-25T21:19:40.935Z,1.60
2019-04-25T21:22:08.876Z,1.80
2019-04-25T21:24:37.869Z,1.90
2019-04-25T21:27:09.953Z,1.62
2019-04-25T21:29:40.441Z,2.15
2019-04-25T21:32:09.406Z,1.80
2019-04-25T21:34:37.288Z,1.80
2019-04-25T21:37:07.238Z,2.20
2019-04-25T21:39:46.149Z,1.70
2019-04-25T21:42:22.294Z,1.80
2019-04-25T21:44:51.807Z,2.00
2019-04-25T21:47:26.790Z,1.72
2019-04-25T21:49:55.084Z,2.17
2019-04-25T21:52:23.388Z,2.40
2019-04-25T21:54:54.724Z,2.17
2019-04-25T21:57:25.529Z,2.35
2019-04-25T22:00:03.125Z,2.40
2019-04-25T22:02:25.896Z,2.85
2019-04-25T22:04:54.188Z,2.62
2019-04-25T22:07:25.782Z,2.72
2019-04-25T22:09:55.432Z,2.80
2019-04-25T22:12:27.516Z,3.08
2019-04-25T22:14:57.161Z,2.50
2019-04-25T22:17:25.228Z,2.90
2019-04-25T22:19:55.655Z,3.10
2019-04-25T22:22:26.608Z,2.70
2019-04-25T22:24:58.589Z,2.90
2019-04-25T22:27:31.397Z,3.10
2019-04-25T22:29:59.961Z,2.58
2019-04-25T22:32:42.198Z,2.50
2019-04-25T22:35:33.637Z,3.00
2019-04-25T22:38:02.199Z,2.45
2019-04-25T22:40:31.494Z,2.45
2019-04-25T22:43:00.407Z,2.20
2019-04-25T22:45:31.094Z,2.10
2019-04-25T22:48:02.611Z,2.40
2019-04-25T22:50:37.880Z,2.05
2019-04-25T22:53:08.302Z,1.82
2019-04-25T22:55:39.244Z,2.17
2019-04-25T22:58:07.806Z,2.27
2019-04-25T23:00:37.460Z,1.90
2019-04-25T23:03:22.224Z,1.57
2019-04-25T23:05:56.083Z,2.80
2019-04-25T23:08:26.938Z,2.00
2019-04-25T23:10:55.448Z,1.92
2019-04-25T23:13:25.473Z,1.50
2019-04-25T23:15:53.989Z,1.98
2019-04-25T23:18:22.118Z,1.70
2019-04-25T23:20:50.019Z,1.62
2019-04-25T23:23:18.343Z,1.67
2019-04-25T23:26:14.255Z,1.55
2019-04-25T23:28:43.552Z,1.80
2019-04-25T23:31:18.489Z,2.00
2019-04-25T23:33:46.552Z,1.65
2019-04-25T23:36:15.413Z,1.65
2019-04-25T23:38:45.449Z,1.75
2019-04-25T23:41:21.135Z,1.77
2019-04-25T23:43:51.282Z,1.57
2019-04-25T23:46:21.477Z,1.40
2019-04-25T23:48:50.788Z,1.65
2019-04-25T23:51:18.721Z,1.75
2019-04-25T23:53:47.138Z,1.57
2019-04-25T23:56:15.254Z,2.15
2019-04-25T23:58:44.923Z,2.08
